Time;durP1;ratioP1;P1;durP2;ratioP2;P2;SDS_P1;SDS_P2;PMS_P1;PMS_P2;Temp;Humidity;BMP_temperature;BMP_pressure;BME280_temperature;BME280_humidity;BME280_pressure;Samples;Min_cycle;Max_cycle;Signal;HPM_P1;HPM_P2
2021/12/06 00:01:05;;;;;;;57.58;27.55;;;3.50;99.90;;;;;;2115228;28;20031;-71
2021/12/06 00:02:12;;;;;;;51.25;25.60;;;3.40;99.90;;;;;;2114786;28;20386;-71
2021/12/06 00:03:19;;;;;;;56.17;27.35;;;3.40;99.90;;;;;;2115295;28;20080;-71
2021/12/06 00:04:27;;;;;;;54.50;27.15;;;3.40;99.90;;;;;;2115251;28;20020;-71
2021/12/06 00:05:29;;;;;;;54.97;26.58;;;3.40;99.90;;;;;;2115417;28;20028;-71
2021/12/06 00:06:33;;;;;;;57.28;27.35;;;3.40;99.90;;;;;;2114571;28;20035;-71
2021/12/06 00:07:34;;;;;;;59.20;27.70;;;3.40;99.90;;;;;;2114776;28;20064;-71
2021/12/06 00:08:35;;;;;;;60.25;27.90;;;3.40;99.90;;;;;;2115252;28;20128;-70
2021/12/06 00:09:36;;;;;;;56.08;26.88;;;3.40;99.90;;;;;;2115292;28;20012;-71
2021/12/06 00:10:37;;;;;;;56.90;27.42;;;3.30;99.90;;;;;;2115163;28;20471;-71
2021/12/06 00:11:39;;;;;;;55.55;26.77;;;3.40;99.90;;;;;;2114767;28;20076;-71
2021/12/06 00:12:41;;;;;;;56.00;27.50;;;3.40;99.90;;;;;;2114404;28;20074;-71
2021/12/06 00:13:44;;;;;;;58.95;28.20;;;3.30;99.90;;;;;;2114494;28;20035;-71
2021/12/06 00:14:45;;;;;;;57.67;27.88;;;3.30;99.90;;;;;;2114567;28;20052;-70
2021/12/06 00:15:48;;;;;;;59.35;28.42;;;3.30;99.90;;;;;;2114561;28;20027;-69
2021/12/06 00:16:50;;;;;;;54.17;27.60;;;3.30;99.90;;;;;;2114576;28;20027;-71
2021/12/06 00:17:51;;;;;;;57.42;27.42;;;3.30;99.90;;;;;;2114500;28;20027;-71
2021/12/06 00:18:52;;;;;;;54.95;27.73;;;3.30;99.90;;;;;;2113732;28;20027;-71
2021/12/06 00:19:52;;;;;;;56.13;27.73;;;3.30;99.90;;;;;;2113688;28;20525;-71
2021/12/06 00:20:54;;;;;;;58.13;27.85;;;3.30;99.90;;;;;;2114295;28;20063;-69
2021/12/06 00:21:56;;;;;;;56.38;27.35;;;3.30;99.90;;;;;;2112918;28;20031;-72
2021/12/06 00:22:57;;;;;;;55.60;27.58;;;3.30;99.90;;;;;;2113744;28;20027;-71
2021/12/06 00:23:57;;;;;;;54.17;27.20;;;3.30;99.90;;;;;;2113548;28;20024;-71
2021/12/06 00:24:58;;;;;;;53.83;27.38;;;3.40;99.90;;;;;;2105275;28;20426;-71
2021/12/06 00:25:59;;;;;;;54.67;27.70;;;3.40;99.90;;;;;;2113788;28;20023;-71
2021/12/06 00:27:00;;;;;;;54.03;26.92;;;3.30;99.90;;;;;;2113870;28;20076;-70
2021/12/06 00:28:00;;;;;;;56.20;28.10;;;3.30;99.90;;;;;;2113732;28;20036;-70
2021/12/06 00:29:01;;;;;;;48.97;25.70;;;3.30;99.90;;;;;;2113860;28;20019;-71
2021/12/06 00:30:03;;;;;;;50.60;25.33;;;3.40;99.90;;;;;;2114362;28;20081;-72
2021/12/06 00:31:04;;;;;;;48.22;25.05;;;3.40;99.90;;;;;;2115338;28;20031;-72
2021/12/06 00:32:05;;;;;;;54.08;26.15;;;3.40;99.90;;;;;;2114258;28;20065;-72
2021/12/06 00:33:06;;;;;;;50.40;26.67;;;3.40;99.90;;;;;;2115028;28;20028;-72
2021/12/06 00:34:12;;;;;;;49.25;26.17;;;3.40;99.90;;;;;;2114944;28;20202;-71
2021/12/06 00:35:19;;;;;;;51.53;26.23;;;3.30;99.90;;;;;;2115938;28;20048;-70
2021/12/06 00:36:27;;;;;;;53.33;26.65;;;3.30;99.90;;;;;;2115019;28;20075;-71
2021/12/06 00:37:34;;;;;;;51.05;26.02;;;3.30;99.90;;;;;;2114520;28;20098;-71
2021/12/06 00:38:36;;;;;;;45.95;24.52;;;3.30;99.90;;;;;;2113579;28;20077;-71
2021/12/06 00:39:36;;;;;;;48.80;25.52;;;3.30;99.90;;;;;;2105628;28;20346;-71
2021/12/06 00:40:40;;;;;;;50.85;26.15;;;3.30;99.90;;;;;;2113778;28;20027;-71
2021/12/06 00:41:41;;;;;;;50.00;26.42;;;3.30;99.90;;;;;;2112326;28;20483;-70
2021/12/06 00:42:42;;;;;;;50.80;26.60;;;3.20;99.90;;;;;;2105142;28;20078;-71
2021/12/06 00:43:42;;;;;;;45.53;24.60;;;3.20;99.90;;;;;;2105280;28;20040;-71
2021/12/06 00:44:43;;;;;;;46.90;25.25;;;3.20;99.90;;;;;;2114277;28;20077;-71
2021/12/06 00:45:44;;;;;;;49.58;25.95;;;3.20;99.90;;;;;;2114733;28;20062;-72
2021/12/06 00:46:44;;;;;;;44.53;24.35;;;3.30;99.90;;;;;;2113660;28;20039;-71
2021/12/06 00:47:45;;;;;;;44.30;23.85;;;3.30;99.90;;;;;;2114166;28;20053;-72
2021/12/06 00:48:46;;;;;;;44.65;24.83;;;3.30;99.90;;;;;;2114332;28;20423;-72
2021/12/06 00:49:47;;;;;;;46.90;25.90;;;3.30;99.90;;;;;;2114432;28;20028;-71
2021/12/06 00:50:48;;;;;;;47.53;25.02;;;3.30;99.90;;;;;;2113865;28;20049;-71
2021/12/06 00:51:49;;;;;;;44.13;24.00;;;3.30;99.90;;;;;;2104623;28;20497;-71
2021/12/06 00:52:51;;;;;;;44.63;24.05;;;3.30;99.90;;;;;;2097339;28;20038;-70
2021/12/06 00:53:51;;;;;;;47.30;24.92;;;3.30;99.90;;;;;;2105106;28;20524;-71
2021/12/06 00:54:52;;;;;;;45.33;23.77;;;3.30;99.90;;;;;;2104984;28;20077;-72
2021/12/06 00:55:53;;;;;;;45.50;24.92;;;3.30;99.90;;;;;;2113639;28;20430;-71
2021/12/06 00:56:54;;;;;;;42.55;23.83;;;3.30;99.90;;;;;;2113434;28;20046;-71
2021/12/06 00:57:55;;;;;;;44.00;23.88;;;3.30;99.90;;;;;;2114084;28;20544;-71
2021/12/06 00:58:56;;;;;;;45.38;24.27;;;3.30;99.90;;;;;;2114128;28;20027;-71
2021/12/06 00:59:57;;;;;;;43.72;23.15;;;3.20;99.90;;;;;;2113090;28;20018;-71
2021/12/06 01:00:59;;;;;;;43.67;24.20;;;3.20;99.90;;;;;;2113356;28;20018;-70
2021/12/06 01:02:02;;;;;;;45.75;24.23;;;3.30;99.90;;;;;;2112557;28;20097;-71
2021/12/06 01:03:11;;;;;;;43.08;23.25;;;3.30;99.90;;;;;;2105563;28;20028;-71
2021/12/06 01:04:12;;;;;;;43.83;23.70;;;3.30;99.90;;;;;;2113619;28;20050;-70
2021/12/06 01:05:13;;;;;;;45.70;25.13;;;3.30;99.90;;;;;;2114249;28;20023;-71
2021/12/06 01:06:14;;;;;;;45.63;24.48;;;3.30;99.90;;;;;;2114344;28;20020;-70
2021/12/06 01:07:16;;;;;;;42.67;23.35;;;3.20;99.90;;;;;;2114448;28;20069;-70
2021/12/06 01:08:17;;;;;;;40.42;23.00;;;3.20;99.90;;;;;;2113488;28;20024;-70
2021/12/06 01:09:18;;;;;;;43.55;23.45;;;3.20;99.90;;;;;;2113458;28;20027;-70
2021/12/06 01:10:23;;;;;;;46.80;24.25;;;3.20;99.90;;;;;;2114053;28;20031;-71
2021/12/06 01:11:25;;;;;;;48.20;24.90;;;3.30;99.90;;;;;;2112971;28;20107;-71
2021/12/06 01:12:25;;;;;;;46.47;24.77;;;3.20;99.90;;;;;;2113130;28;20747;-71
2021/12/06 01:13:29;;;;;;;46.45;24.75;;;3.20;99.90;;;;;;2113275;28;20035;-71
2021/12/06 01:14:30;;;;;;;48.38;25.08;;;3.20;99.90;;;;;;2113499;28;20766;-73
2021/12/06 01:15:32;;;;;;;47.75;24.15;;;3.20;99.90;;;;;;2113514;28;20043;-70
2021/12/06 01:16:33;;;;;;;46.25;24.63;;;3.20;99.90;;;;;;2105204;28;20111;-70
2021/12/06 01:17:33;;;;;;;49.42;25.33;;;3.20;99.90;;;;;;2105036;28;20028;-70
2021/12/06 01:18:35;;;;;;;47.53;24.20;;;3.20;99.90;;;;;;2104935;28;20392;-69
2021/12/06 01:19:37;;;;;;;48.38;25.60;;;3.20;99.90;;;;;;2113752;28;20027;-70
2021/12/06 01:20:44;;;;;;;50.13;25.55;;;3.20;99.90;;;;;;2113345;28;20031;-70
2021/12/06 01:21:54;;;;;;;46.05;24.80;;;3.20;99.90;;;;;;2104792;28;20061;-70
2021/12/06 01:23:02;;;;;;;51.40;25.30;;;3.20;99.90;;;;;;2097930;28;20028;-70
2021/12/06 01:24:03;;;;;;;50.97;25.95;;;3.20;99.90;;;;;;2090077;28;20033;-70
2021/12/06 01:25:16;;;;;;;53.63;27.33;;;3.20;99.90;;;;;;2096643;28;20036;-70
2021/12/06 01:27:51;;;;;;;47.58;23.55;;;3.10;99.90;;;;;;2114482;28;20039;-71
2021/12/06 01:29:23;;;;;;;50.00;24.83;;;3.10;99.90;;;;;;2114562;28;20053;-70
2021/12/06 01:32:05;;;;;;;45.65;23.40;;;3.10;99.90;;;;;;2114365;28;20123;-70
2021/12/06 01:33:32;;;;;;;46.25;23.40;;;3.20;99.90;;;;;;2109261;28;20157;-70
2021/12/06 01:39:11;;;;;;;54.40;26.58;;;3.20;99.90;;;;;;2113514;28;20415;-70
2021/12/06 01:39:38;;;;;;;54.63;27.13;;;3.10;99.90;;;;;;2113156;28;20035;-71
2021/12/06 01:40:39;;;;;;;58.05;28.35;;;3.10;99.90;;;;;;2113391;28;20111;-71
2021/12/06 01:41:50;;;;;;;55.50;27.70;;;3.10;99.90;;;;;;2112368;28;20023;-71
2021/12/06 01:42:51;;;;;;;60.00;28.20;;;3.00;99.90;;;;;;2106405;28;20476;-71
2021/12/06 01:44:17;;;;;;;54.38;26.77;;;3.00;99.90;;;;;;2113120;28;20032;-70
2021/12/06 01:45:23;;;;;;;58.60;27.35;;;3.00;99.90;;;;;;2113131;28;20578;-70
2021/12/06 01:46:24;;;;;;;59.03;28.02;;;3.00;99.90;;;;;;2104675;28;20028;-71
2021/12/06 01:47:29;;;;;;;60.70;28.80;;;3.00;99.90;;;;;;2104795;28;20499;-70
2021/12/06 01:48:30;;;;;;;59.88;28.35;;;3.00;99.90;;;;;;2105439;28;20629;-70
2021/12/06 01:49:43;;;;;;;61.40;28.67;;;3.00;99.90;;;;;;2113331;28;20032;-70
2021/12/06 01:50:44;;;;;;;62.28;29.85;;;3.00;99.90;;;;;;2113032;28;20031;-70
2021/12/06 01:51:46;;;;;;;62.92;29.48;;;3.10;99.90;;;;;;2112691;28;20031;-71
2021/12/06 01:52:50;;;;;;;62.33;29.48;;;3.10;99.90;;;;;;2113312;28;20031;-70
2021/12/06 01:53:51;;;;;;;64.60;29.85;;;3.10;99.90;;;;;;2113109;28;20032;-70
2021/12/06 01:54:52;;;;;;;65.43;29.65;;;3.10;99.90;;;;;;2113239;28;20023;-70
2021/12/06 01:55:53;;;;;;;64.25;29.30;;;3.00;99.90;;;;;;2104819;28;20066;-70
2021/12/06 01:56:54;;;;;;;66.70;30.50;;;3.10;99.90;;;;;;2104741;28;20774;-70
2021/12/06 01:57:56;;;;;;;66.55;32.00;;;3.10;99.90;;;;;;2113223;28;20522;-70
2021/12/06 01:58:59;;;;;;;71.45;31.67;;;3.00;99.90;;;;;;2105368;28;20031;-70
2021/12/06 02:00:08;;;;;;;69.80;30.98;;;2.90;99.90;;;;;;2112994;28;20170;-70
2021/12/06 02:01:16;;;;;;;67.22;30.65;;;2.90;99.90;;;;;;2113019;28;20016;-70
2021/12/06 02:02:17;;;;;;;71.10;31.40;;;3.00;99.90;;;;;;2111869;28;20039;-70
2021/12/06 02:03:17;;;;;;;70.68;31.67;;;2.90;99.90;;;;;;2104133;28;20025;-70
2021/12/06 02:04:20;;;;;;;72.18;31.80;;;2.90;99.90;;;;;;2105037;28;20020;-70
2021/12/06 02:05:21;;;;;;;71.00;31.92;;;2.90;99.90;;;;;;2105053;28;20056;-69
2021/12/06 02:06:22;;;;;;;75.80;33.38;;;2.90;99.90;;;;;;2113589;28;20449;-69
2021/12/06 02:07:26;;;;;;;76.50;34.78;;;2.90;99.90;;;;;;2105873;28;20384;-69
2021/12/06 02:08:30;;;;;;;77.20;34.13;;;2.80;99.90;;;;;;2107353;28;20031;-71
2021/12/06 02:09:33;;;;;;;76.53;33.30;;;2.80;99.90;;;;;;2106896;28;20424;-70
2021/12/06 02:10:39;;;;;;;76.65;33.35;;;2.80;99.90;;;;;;2107060;28;20036;-69
2021/12/06 02:11:44;;;;;;;74.60;33.78;;;2.80;99.90;;;;;;2114277;28;20072;-70
2021/12/06 02:12:47;;;;;;;78.85;33.90;;;2.80;99.90;;;;;;2106544;28;20032;-70
2021/12/06 02:13:55;;;;;;;79.47;35.08;;;2.80;99.90;;;;;;2115002;28;20016;-70
2021/12/06 02:15:03;;;;;;;75.85;33.00;;;2.70;99.90;;;;;;2115572;28;20097;-70
2021/12/06 02:16:05;;;;;;;75.55;32.75;;;2.70;99.90;;;;;;2114935;28;20515;-69
2021/12/06 02:17:15;;;;;;;77.32;34.10;;;2.70;99.90;;;;;;2106494;28;20094;-69
2021/12/06 02:18:39;;;;;;;80.85;34.67;;;2.70;99.90;;;;;;2107783;28;20032;-69
2021/12/06 02:19:41;;;;;;;80.00;33.60;;;2.70;99.90;;;;;;2109363;28;20073;-70
2021/12/06 02:20:57;;;;;;;81.53;34.08;;;2.60;99.90;;;;;;2115237;28;20204;-69
2021/12/06 02:22:00;;;;;;;82.68;35.17;;;2.50;99.90;;;;;;2115148;28;20024;-70
2021/12/06 02:23:02;;;;;;;81.97;34.92;;;2.50;99.90;;;;;;2115828;28;20024;-70
2021/12/06 02:24:08;;;;;;;77.97;34.70;;;2.40;99.90;;;;;;2106644;28;20047;-69
2021/12/06 02:25:14;;;;;;;82.35;35.80;;;2.40;99.90;;;;;;2091350;28;20114;-70
2021/12/06 02:26:16;;;;;;;77.68;34.17;;;2.30;99.90;;;;;;2100021;28;20082;-69
2021/12/06 02:27:17;;;;;;;78.80;34.75;;;2.30;99.90;;;;;;2101082;28;20025;-70
2021/12/06 02:28:18;;;;;;;79.30;34.25;;;2.40;99.90;;;;;;2114427;28;20047;-71
2021/12/06 02:29:18;;;;;;;81.68;36.05;;;2.40;99.90;;;;;;2120913;28;20028;-70
2021/12/06 02:30:21;;;;;;;77.57;34.17;;;2.40;99.90;;;;;;2111377;28;20038;-71
2021/12/06 02:31:24;;;;;;;78.57;35.10;;;2.40;99.90;;;;;;2108098;28;20053;-71
2021/12/06 02:32:25;;;;;;;83.20;35.28;;;2.30;99.90;;;;;;2106501;28;20016;-70
2021/12/06 02:33:26;;;;;;;80.63;35.38;;;2.30;99.90;;;;;;2114690;28;20111;-71
2021/12/06 02:34:28;;;;;;;81.22;35.45;;;2.30;99.90;;;;;;2114812;28;20091;-71
2021/12/06 02:35:29;;;;;;;83.30;35.72;;;2.30;99.90;;;;;;2106141;28;20028;-69
2021/12/06 02:36:33;;;;;;;81.88;35.53;;;2.30;99.90;;;;;;2106746;28;20091;-71
2021/12/06 02:37:34;;;;;;;81.22;35.28;;;2.30;99.90;;;;;;2106406;28;20016;-69
2021/12/06 02:38:36;;;;;;;85.97;36.00;;;2.20;99.90;;;;;;2114767;28;20111;-69
2021/12/06 02:39:38;;;;;;;93.35;38.45;;;2.20;99.90;;;;;;2114862;28;20156;-70
2021/12/06 02:40:40;;;;;;;85.82;36.60;;;2.20;99.90;;;;;;2114698;28;20055;-69
2021/12/06 02:41:42;;;;;;;87.05;36.03;;;2.20;99.90;;;;;;2106130;28;20030;-69
2021/12/06 02:42:46;;;;;;;87.70;36.30;;;2.20;99.90;;;;;;2106451;28;20767;-70
2021/12/06 02:43:50;;;;;;;85.40;36.80;;;2.20;99.90;;;;;;2106327;28;20036;-70
2021/12/06 02:44:53;;;;;;;83.88;36.92;;;2.20;99.90;;;;;;2106927;28;20431;-70
2021/12/06 02:45:54;;;;;;;83.03;36.10;;;2.30;99.90;;;;;;2114675;28;20164;-71
2021/12/06 02:46:56;;;;;;;87.43;37.65;;;2.20;99.90;;;;;;2114673;28;20028;-70
2021/12/06 02:48:01;;;;;;;87.28;36.97;;;2.20;99.90;;;;;;2106172;28;20020;-70
2021/12/06 02:49:05;;;;;;;89.38;37.67;;;2.30;99.90;;;;;;2099689;28;20092;-70
2021/12/06 02:50:09;;;;;;;86.80;36.45;;;2.20;99.90;;;;;;2106186;28;20252;-69
2021/12/06 02:51:12;;;;;;;81.82;35.85;;;2.20;99.90;;;;;;2114619;28;20024;-70
2021/12/06 02:52:13;;;;;;;84.90;36.17;;;2.20;99.90;;;;;;2113941;28;20023;-71
2021/12/06 02:53:16;;;;;;;91.85;37.60;;;2.20;99.90;;;;;;2114364;28;20023;-71
2021/12/06 02:54:23;;;;;;;85.20;35.70;;;2.20;99.90;;;;;;2098194;28;20025;-70
2021/12/06 02:55:36;;;;;;;89.88;36.67;;;2.30;99.90;;;;;;2107150;28;20056;-69
2021/12/06 02:56:51;;;;;;;84.93;35.67;;;2.30;99.90;;;;;;2099437;28;20050;-69
2021/12/06 02:57:56;;;;;;;86.60;35.83;;;2.30;99.90;;;;;;2101597;28;20069;-69
2021/12/06 02:59:08;;;;;;;84.40;36.30;;;2.30;99.90;;;;;;2106861;28;20016;-69
2021/12/06 03:00:10;;;;;;;91.03;37.33;;;2.30;99.90;;;;;;2107675;28;20161;-70
2021/12/06 03:01:22;;;;;;;87.80;35.95;;;2.30;99.90;;;;;;2114528;28;20079;-68
2021/12/06 03:02:30;;;;;;;85.88;36.45;;;2.30;99.90;;;;;;2107523;28;20027;-70
2021/12/06 03:03:30;;;;;;;83.05;35.22;;;2.20;99.90;;;;;;2114829;28;20039;-69
2021/12/06 03:04:31;;;;;;;80.00;34.83;;;2.20;99.90;;;;;;2114991;28;20032;-69
2021/12/06 03:05:32;;;;;;;80.20;33.13;;;2.20;99.90;;;;;;2114447;28;20050;-69
2021/12/06 03:06:34;;;;;;;79.10;34.47;;;2.20;99.90;;;;;;2114546;28;20085;-69
2021/12/06 03:07:37;;;;;;;80.60;33.90;;;2.20;99.90;;;;;;2114601;28;20030;-69
2021/12/06 03:09:07;;;;;;;78.15;33.58;;;2.20;99.90;;;;;;2106507;28;20114;-69
2021/12/06 03:10:09;;;;;;;78.32;33.28;;;2.20;99.90;;;;;;2105318;28;20184;-69
2021/12/06 03:11:17;;;;;;;75.65;32.78;;;2.10;99.90;;;;;;2107616;28;20791;-69
2021/12/06 03:12:19;;;;;;;77.82;32.90;;;2.10;99.90;;;;;;2107797;28;20032;-69
2021/12/06 03:13:20;;;;;;;75.55;32.72;;;2.10;99.90;;;;;;2114867;28;20088;-69
2021/12/06 03:14:24;;;;;;;70.82;31.20;;;2.10;99.90;;;;;;2114748;28;20019;-69
2021/12/06 03:15:28;;;;;;;76.18;32.28;;;2.10;99.90;;;;;;2115115;28;20032;-69
2021/12/06 03:16:29;;;;;;;77.47;32.50;;;2.10;99.90;;;;;;2115157;28;20438;-69
2021/12/06 03:17:32;;;;;;;75.20;32.00;;;2.20;99.90;;;;;;2106961;28;20059;-71
2021/12/06 03:18:33;;;;;;;74.55;33.42;;;2.20;99.90;;;;;;2106867;28;20028;-69
2021/12/06 03:19:36;;;;;;;71.03;31.23;;;2.20;99.90;;;;;;2107006;28;20020;-69
2021/12/06 03:20:36;;;;;;;75.82;32.42;;;2.20;99.90;;;;;;2106981;28;20035;-70
2021/12/06 03:21:38;;;;;;;74.40;32.95;;;2.20;99.90;;;;;;2114520;28;20118;-70
2021/12/06 03:22:39;;;;;;;73.20;32.00;;;2.20;99.90;;;;;;2114603;28;20027;-69
2021/12/06 03:23:40;;;;;;;72.30;32.42;;;2.10;99.90;;;;;;2114581;28;20032;-69
2021/12/06 03:24:42;;;;;;;72.22;32.40;;;2.10;99.90;;;;;;2114147;28;20034;-69
2021/12/06 03:25:44;;;;;;;70.53;32.42;;;2.10;99.90;;;;;;2105706;28;20036;-68
2021/12/06 03:26:46;;;;;;;66.22;30.67;;;2.10;99.90;;;;;;2097747;28;20481;-70
2021/12/06 03:27:48;;;;;;;68.70;30.90;;;2.10;99.90;;;;;;2106126;28;20044;-70
2021/12/06 03:28:50;;;;;;;69.35;30.90;;;2.10;99.90;;;;;;2114221;28;20057;-69
2021/12/06 03:29:53;;;;;;;67.80;30.60;;;2.10;99.90;;;;;;2097757;28;20058;-69
2021/12/06 03:30:54;;;;;;;72.20;31.08;;;2.10;99.90;;;;;;2097872;28;20146;-69
2021/12/06 03:31:55;;;;;;;67.68;31.15;;;2.10;99.90;;;;;;2113454;28;20498;-68
2021/12/06 03:32:56;;;;;;;68.95;31.33;;;2.10;99.90;;;;;;2105875;28;20080;-69
2021/12/06 03:33:57;;;;;;;66.18;31.38;;;2.10;99.90;;;;;;2105653;28;20024;-70
2021/12/06 03:34:59;;;;;;;72.60;32.28;;;2.10;99.90;;;;;;2105706;28;20028;-69
2021/12/06 03:35:59;;;;;;;67.00;31.55;;;2.10;99.90;;;;;;2105956;28;20020;-70
2021/12/06 03:37:03;;;;;;;76.60;32.85;;;2.10;99.90;;;;;;2105915;28;20052;-69
2021/12/06 03:38:07;;;;;;;71.45;32.28;;;2.10;99.90;;;;;;2098134;28;20106;-69
2021/12/06 03:39:20;;;;;;;69.20;31.85;;;2.10;99.90;;;;;;2105803;28;20077;-70
2021/12/06 03:40:21;;;;;;;69.25;31.23;;;2.10;99.90;;;;;;2107545;28;20032;-69
2021/12/06 03:41:24;;;;;;;66.72;31.88;;;2.10;99.90;;;;;;2105720;28;20107;-70
2021/12/06 03:42:25;;;;;;;69.97;31.83;;;2.10;99.90;;;;;;2113865;28;20031;-69
2021/12/06 03:43:27;;;;;;;66.68;31.40;;;2.10;99.90;;;;;;2105606;28;20035;-69
2021/12/06 03:44:28;;;;;;;65.35;30.60;;;2.10;99.90;;;;;;2114168;28;20031;-70
2021/12/06 03:45:29;;;;;;;65.82;30.83;;;2.10;99.90;;;;;;2114233;28;20510;-70
2021/12/06 03:46:32;;;;;;;65.43;31.50;;;2.00;99.90;;;;;;2106068;28;20020;-70
2021/12/06 03:47:33;;;;;;;67.97;33.10;;;2.10;99.90;;;;;;2114357;28;20023;-71
2021/12/06 03:48:35;;;;;;;72.00;34.60;;;2.10;99.90;;;;;;2114448;28;20100;-70
2021/12/06 03:49:37;;;;;;;69.60;33.90;;;2.10;99.90;;;;;;2114196;28;20081;-69
2021/12/06 03:50:41;;;;;;;69.80;33.92;;;2.10;99.90;;;;;;2114129;28;20055;-71
2021/12/06 03:51:43;;;;;;;69.75;32.85;;;2.10;99.90;;;;;;2113523;28;20032;-70
2021/12/06 03:52:46;;;;;;;71.57;33.70;;;2.10;99.90;;;;;;2106066;28;20522;-70
2021/12/06 03:53:46;;;;;;;72.20;34.38;;;2.10;99.90;;;;;;2105532;28;20123;-69
2021/12/06 03:54:50;;;;;;;71.05;34.78;;;2.10;99.90;;;;;;2114325;28;20047;-69
2021/12/06 03:55:52;;;;;;;72.57;34.78;;;2.10;99.90;;;;;;2114156;28;20023;-70
2021/12/06 03:56:53;;;;;;;72.53;35.78;;;2.10;99.90;;;;;;2105692;28;20034;-70
2021/12/06 03:57:54;;;;;;;70.82;35.25;;;2.10;99.90;;;;;;2105745;28;20074;-70
2021/12/06 03:58:55;;;;;;;75.63;36.13;;;2.10;99.90;;;;;;2105597;28;20020;-70
2021/12/06 03:59:56;;;;;;;69.95;34.90;;;2.00;99.90;;;;;;2113985;28;20043;-70
2021/12/06 04:00:58;;;;;;;70.47;33.97;;;2.00;99.90;;;;;;2114024;28;20046;-70
2021/12/06 04:01:59;;;;;;;74.93;36.80;;;1.90;99.90;;;;;;2105087;28;20091;-70
2021/12/06 04:03:00;;;;;;;68.65;34.38;;;2.00;99.90;;;;;;2097378;28;20032;-70
2021/12/06 04:04:05;;;;;;;69.07;35.40;;;2.00;99.90;;;;;;2097528;28;20025;-70
2021/12/06 04:05:07;;;;;;;67.47;34.30;;;2.00;99.90;;;;;;2114026;28;20072;-70
2021/12/06 04:06:08;;;;;;;68.13;33.95;;;2.00;99.90;;;;;;2105587;28;20024;-70
2021/12/06 04:07:10;;;;;;;68.45;35.40;;;2.00;99.90;;;;;;2105710;28;20459;-70
2021/12/06 04:08:13;;;;;;;68.63;33.67;;;1.90;99.90;;;;;;2105699;28;20043;-69
2021/12/06 04:09:14;;;;;;;68.85;34.55;;;1.90;99.90;;;;;;2105435;28;20119;-69
2021/12/06 04:10:16;;;;;;;70.68;36.35;;;1.90;99.90;;;;;;2105757;28;20036;-69
2021/12/06 04:11:18;;;;;;;70.53;35.00;;;1.90;99.90;;;;;;2105573;28;20032;-69
2021/12/06 04:12:20;;;;;;;67.88;35.33;;;1.80;99.90;;;;;;2104970;28;20028;-69
2021/12/06 04:13:23;;;;;;;65.80;33.75;;;1.90;99.90;;;;;;2105326;28;20420;-69
2021/12/06 04:14:25;;;;;;;67.85;35.33;;;1.90;99.90;;;;;;2113860;28;20020;-70
2021/12/06 04:15:30;;;;;;;67.72;35.28;;;1.80;99.90;;;;;;2105253;28;20028;-69
2021/12/06 04:16:31;;;;;;;68.65;35.40;;;1.80;99.90;;;;;;2113928;28;20396;-69
2021/12/06 04:17:32;;;;;;;67.97;35.28;;;1.80;99.90;;;;;;2113742;28;20030;-71
2021/12/06 04:18:34;;;;;;;68.22;36.50;;;1.90;99.90;;;;;;2113752;28;20023;-70
2021/12/06 04:19:35;;;;;;;68.28;35.50;;;1.80;99.90;;;;;;2113896;28;20059;-70
2021/12/06 04:20:36;;;;;;;72.93;36.70;;;1.80;99.90;;;;;;2105422;28;20046;-70
2021/12/06 04:21:39;;;;;;;66.13;34.75;;;1.80;99.90;;;;;;2104970;28;20036;-70
2021/12/06 04:22:42;;;;;;;72.65;37.47;;;1.80;99.90;;;;;;2106024;28;20024;-70
2021/12/06 04:23:43;;;;;;;72.10;36.85;;;1.80;99.90;;;;;;2105693;28;20136;-70
2021/12/06 04:24:45;;;;;;;67.28;35.80;;;1.80;99.90;;;;;;2114050;28;20077;-70
2021/12/06 04:25:48;;;;;;;71.88;36.60;;;1.70;99.90;;;;;;2113848;28;20034;-70
2021/12/06 04:26:50;;;;;;;74.65;38.15;;;1.80;99.90;;;;;;2105627;28;20036;-70
2021/12/06 04:27:55;;;;;;;72.53;38.05;;;1.80;99.90;;;;;;2105690;28;20032;-69
2021/12/06 04:29:01;;;;;;;71.13;35.40;;;1.80;99.90;;;;;;2113176;28;20031;-70
2021/12/06 04:30:10;;;;;;;70.43;36.72;;;1.80;99.90;;;;;;2107308;28;20111;-69
2021/12/06 04:31:11;;;;;;;65.70;35.90;;;1.80;99.90;;;;;;2113910;28;20090;-69
2021/12/06 04:32:13;;;;;;;70.07;36.55;;;1.80;99.90;;;;;;2113226;28;20027;-68
2021/12/06 04:33:15;;;;;;;73.55;36.75;;;1.90;99.90;;;;;;2113664;28;20496;-69
2021/12/06 04:34:18;;;;;;;69.72;36.05;;;1.80;99.90;;;;;;2113687;28;20019;-69
2021/12/06 04:35:21;;;;;;;66.95;35.85;;;1.80;99.90;;;;;;2105419;28;20059;-69
2021/12/06 04:36:23;;;;;;;69.28;35.53;;;1.80;99.90;;;;;;2113996;28;20024;-69
2021/12/06 04:37:25;;;;;;;68.28;36.65;;;1.80;99.90;;;;;;2105404;28;20017;-69
2021/12/06 04:38:28;;;;;;;71.50;36.58;;;1.80;99.90;;;;;;2105679;28;20029;-70
2021/12/06 04:39:33;;;;;;;72.72;36.55;;;1.80;99.90;;;;;;2113751;28;20024;-69
2021/12/06 04:40:36;;;;;;;70.00;35.47;;;1.80;99.90;;;;;;2113713;28;20034;-69
2021/12/06 04:41:38;;;;;;;70.47;36.08;;;1.80;99.90;;;;;;2113032;28;20031;-69
2021/12/06 04:42:41;;;;;;;67.97;34.97;;;1.80;99.90;;;;;;2113710;28;20089;-69
2021/12/06 04:43:42;;;;;;;67.50;36.10;;;1.80;99.90;;;;;;2105288;28;20028;-69
2021/12/06 04:44:44;;;;;;;67.00;35.17;;;1.80;99.90;;;;;;2105418;28;20035;-69
2021/12/06 04:45:48;;;;;;;66.40;34.03;;;1.80;99.90;;;;;;2113642;28;20118;-70
2021/12/06 04:46:51;;;;;;;69.32;35.60;;;1.80;99.90;;;;;;2105478;28;20036;-68
2021/12/06 04:47:52;;;;;;;66.20;34.42;;;1.70;99.90;;;;;;2105258;28;20074;-69
2021/12/06 04:48:53;;;;;;;67.35;35.95;;;1.70;99.90;;;;;;2096906;28;20472;-69
2021/12/06 04:49:56;;;;;;;66.63;35.28;;;1.70;99.90;;;;;;2097253;28;20051;-69
2021/12/06 04:50:57;;;;;;;68.50;36.47;;;1.70;99.90;;;;;;2105129;28;20032;-69
2021/12/06 04:52:00;;;;;;;67.00;36.08;;;1.60;99.90;;;;;;2113033;28;20469;-71
2021/12/06 04:53:12;;;;;;;71.93;37.58;;;1.60;99.90;;;;;;2113465;28;20040;-69
2021/12/06 04:54:16;;;;;;;68.50;36.10;;;1.60;99.90;;;;;;2113774;28;20043;-69
2021/12/06 04:55:45;;;;;;;65.07;33.97;;;1.60;99.90;;;;;;2113649;28;20023;-69
2021/12/06 04:56:50;;;;;;;66.60;33.97;;;1.60;99.90;;;;;;2106992;28;20031;-68
2021/12/06 04:57:52;;;;;;;68.60;35.03;;;1.60;99.90;;;;;;2105937;28;20024;-69
2021/12/06 04:58:58;;;;;;;66.80;34.55;;;1.60;99.90;;;;;;2113843;28;20107;-68
2021/12/06 05:00:20;;;;;;;63.17;34.25;;;1.70;99.90;;;;;;2114035;28;20023;-69
2021/12/06 05:01:24;;;;;;;65.95;34.05;;;1.70;99.90;;;;;;2109165;28;20020;-69
2021/12/06 05:02:32;;;;;;;70.70;37.05;;;1.70;99.90;;;;;;2107598;28;20078;-69
2021/12/06 05:03:37;;;;;;;67.38;35.63;;;1.70;99.90;;;;;;2110274;28;20020;-69
2021/12/06 05:04:43;;;;;;;64.95;34.35;;;1.70;99.90;;;;;;2117060;28;20102;-69
2021/12/06 05:05:49;;;;;;;66.03;34.35;;;1.60;99.90;;;;;;2108789;28;20020;-70
2021/12/06 05:06:54;;;;;;;64.70;33.95;;;1.60;99.90;;;;;;2106062;28;20481;-69
2021/12/06 05:08:19;;;;;;;65.45;34.28;;;1.60;99.90;;;;;;2113869;28;20508;-70
2021/12/06 05:09:25;;;;;;;67.25;35.15;;;1.60;99.90;;;;;;2114104;28;20080;-69
2021/12/06 05:10:27;;;;;;;63.15;33.83;;;1.60;99.90;;;;;;2113066;28;20028;-70
2021/12/06 05:11:29;;;;;;;65.50;33.45;;;1.60;99.90;;;;;;2104236;28;20024;-71
2021/12/06 05:12:31;;;;;;;64.20;34.80;;;1.60;99.90;;;;;;2104825;28;20020;-71
2021/12/06 05:13:34;;;;;;;63.60;34.10;;;1.60;99.90;;;;;;2104790;28;20031;-71
2021/12/06 05:14:36;;;;;;;63.83;34.20;;;1.70;99.90;;;;;;2096968;28;20029;-71
2021/12/06 05:15:37;;;;;;;61.22;32.47;;;1.60;99.90;;;;;;2088501;28;20560;-71
2021/12/06 05:16:37;;;;;;;67.70;35.42;;;1.70;99.90;;;;;;2096480;28;20028;-70
2021/12/06 05:17:38;;;;;;;65.72;34.17;;;1.70;99.90;;;;;;2113359;28;20026;-71
2021/12/06 05:18:40;;;;;;;66.07;34.83;;;1.70;99.90;;;;;;2113106;28;20036;-71
2021/12/06 05:19:43;;;;;;;66.50;35.05;;;1.70;99.90;;;;;;2113489;28;20089;-71
2021/12/06 05:20:43;;;;;;;69.68;35.10;;;1.70;99.90;;;;;;2113503;28;20023;-70
2021/12/06 05:21:45;;;;;;;64.47;34.08;;;1.70;99.90;;;;;;2104418;28;20044;-71
2021/12/06 05:22:47;;;;;;;66.32;34.53;;;1.70;99.90;;;;;;2096752;28;20381;-71
2021/12/06 05:23:49;;;;;;;65.95;34.70;;;1.80;99.90;;;;;;2096967;28;20112;-71
2021/12/06 05:24:52;;;;;;;62.47;34.25;;;1.80;99.90;;;;;;2104826;28;20420;-71
2021/12/06 05:25:52;;;;;;;65.35;34.92;;;1.80;99.90;;;;;;2113119;28;20102;-72
2021/12/06 05:26:54;;;;;;;65.93;35.40;;;1.80;99.90;;;;;;2105061;28;20040;-72
2021/12/06 05:27:58;;;;;;;64.93;34.00;;;1.80;99.90;;;;;;2105028;28;20028;-71
2021/12/06 05:29:01;;;;;;;62.72;33.03;;;1.80;99.90;;;;;;2113762;28;20407;-71
2021/12/06 05:30:06;;;;;;;64.05;34.47;;;1.80;99.90;;;;;;2113134;28;20028;-71
2021/12/06 05:31:14;;;;;;;66.85;34.67;;;1.70;99.90;;;;;;2105805;28;20024;-71
2021/12/06 05:32:15;;;;;;;64.60;35.13;;;1.70;99.90;;;;;;2113209;28;20023;-71
2021/12/06 05:33:28;;;;;;;61.03;33.42;;;1.70;99.90;;;;;;2113594;28;20016;-71